Time;durP1;ratioP1;P1;durP2;ratioP2;P2;SDS_P1;SDS_P2;PMS_P1;PMS_P2;Temp;Humidity;BMP_temperature;BMP_pressure;BME280_temperature;BME280_humidity;BME280_pressure;Samples;Min_cycle;Max_cycle;Signal;HPM_P1;HPM_P2
2023/10/06 00:01:54;;;;;;;15.57;7.53;;;;;;;;;;774756;178;911643;-62
2023/10/06 00:04:22;;;;;;;15.60;7.47;;;;;;;;;;771092;181;919149;-64
2023/10/06 00:06:48;;;;;;;18.40;6.80;;;;;;;;;;769346;181;918781;-61
2023/10/06 00:09:22;;;;;;;17.87;8.07;;;;;;;;;;772801;178;920453;-61
2023/10/06 00:11:40;;;;;;;11.23;6.40;;;;;;;;;;766335;180;918737;-62
2023/10/06 00:14:07;;;;;;;17.00;7.17;;;;;;;;;;771272;181;915641;-64
2023/10/06 00:16:38;;;;;;;14.20;7.87;;;;;;;;;;767327;178;919394;-62
2023/10/06 00:19:12;;;;;;;11.98;6.43;;;;;;;;;;772258;177;927263;-62
2023/10/06 00:21:28;;;;;;;13.37;7.27;;;;;;;;;;755427;185;918460;-62
2023/10/06 00:23:52;;;;;;;17.77;6.78;;;;;;;;;;756696;185;918907;-63
2023/10/06 00:26:18;;;;;;;12.17;7.57;;;;;;;;;;761259;184;918200;-64
2023/10/06 00:28:45;;;;;;;14.80;7.23;;;;;;;;;;769712;182;923566;-64
2023/10/06 00:31:12;;;;;;;12.97;7.00;;;;;;;;;;764975;182;816471;-61
2023/10/06 00:33:37;;;;;;;16.92;7.43;;;;;;;;;;741974;183;918632;-65
2023/10/06 00:36:11;;;;;;;12.80;6.50;;;;;;;;;;769168;181;910178;-64
2023/10/06 00:38:30;;;;;;;16.33;6.50;;;;;;;;;;756876;185;916553;-62
2023/10/06 00:40:56;;;;;;;14.30;6.27;;;;;;;;;;770305;181;824704;-65
2023/10/06 00:43:27;;;;;;;16.43;7.77;;;;;;;;;;763463;182;919367;-64
2023/10/06 00:45:53;;;;;;;15.10;6.20;;;;;;;;;;766075;182;918135;-63
2023/10/06 00:48:18;;;;;;;12.00;6.47;;;;;;;;;;765040;182;919314;-64
2023/10/06 00:50:44;;;;;;;15.30;6.43;;;;;;;;;;745560;185;919303;-62
2023/10/06 00:53:10;;;;;;;16.17;8.17;;;;;;;;;;766649;182;918877;-64
2023/10/06 00:55:36;;;;;;;13.40;6.87;;;;;;;;;;772431;182;720723;-61
2023/10/06 00:58:04;;;;;;;18.57;7.33;;;;;;;;;;771430;178;919214;-62
2023/10/06 01:00:31;;;;;;;14.30;6.57;;;;;;;;;;769116;182;828693;-62
2023/10/06 01:02:53;;;;;;;12.10;6.77;;;;;;;;;;770958;179;919258;-61
2023/10/06 01:05:19;;;;;;;11.60;8.03;;;;;;;;;;764305;179;917462;-62
2023/10/06 01:07:45;;;;;;;17.00;7.47;;;;;;;;;;770417;178;919498;-65
2023/10/06 01:10:17;;;;;;;15.70;7.00;;;;;;;;;;762062;181;919389;-62
2023/10/06 01:12:40;;;;;;;16.53;6.60;;;;;;;;;;766119;182;919916;-65
2023/10/06 01:17:38;;;;;;;31.23;8.37;;;;;;;;;;767094;181;919370;-63
2023/10/06 01:20:05;;;;;;;11.10;6.37;;;;;;;;;;774056;180;920878;-64
2023/10/06 01:22:41;;;;;;;12.47;6.70;;;;;;;;;;764884;181;919410;-64
2023/10/06 01:24:58;;;;;;;14.17;7.10;;;;;;;;;;767948;180;920392;-63
2023/10/06 01:27:26;;;;;;;12.73;7.70;;;;;;;;;;771415;181;816651;-64
2023/10/06 01:29:53;;;;;;;16.57;8.10;;;;;;;;;;769657;181;918154;-65
2023/10/06 01:32:15;;;;;;;15.80;7.33;;;;;;;;;;773810;181;918261;-61
2023/10/06 01:34:40;;;;;;;14.40;7.80;;;;;;;;;;754757;183;918643;-65
2023/10/06 01:37:07;;;;;;;14.60;6.80;;;;;;;;;;759883;185;918568;-62
2023/10/06 01:39:35;;;;;;;11.07;7.30;;;;;;;;;;772078;178;920650;-64
2023/10/06 01:42:04;;;;;;;10.27;6.90;;;;;;;;;;768297;182;918719;-64
2023/10/06 01:44:24;;;;;;;13.40;8.13;;;;;;;;;;773982;182;904300;-62
2023/10/06 01:46:53;;;;;;;13.33;6.70;;;;;;;;;;768690;182;919564;-63
2023/10/06 01:49:16;;;;;;;11.97;6.80;;;;;;;;;;757279;184;816027;-61
2023/10/06 01:51:42;;;;;;;16.53;8.70;;;;;;;;;;761940;181;920770;-62
2023/10/06 01:54:12;;;;;;;16.63;7.10;;;;;;;;;;775510;179;919810;-63
2023/10/06 01:56:35;;;;;;;19.13;8.73;;;;;;;;;;762343;181;918823;-62
2023/10/06 01:58:59;;;;;;;12.63;6.82;;;;;;;;;;763530;182;919440;-64
2023/10/06 02:01:25;;;;;;;18.60;7.67;;;;;;;;;;777185;178;915684;-64
2023/10/06 02:03:51;;;;;;;18.40;7.40;;;;;;;;;;763633;180;917039;-64
2023/10/06 02:06:17;;;;;;;16.27;8.57;;;;;;;;;;765053;181;918412;-64
2023/10/06 02:08:49;;;;;;;10.70;6.80;;;;;;;;;;774085;181;919985;-62
2023/10/06 02:11:09;;;;;;;15.97;7.00;;;;;;;;;;753216;185;919103;-62
2023/10/06 02:13:35;;;;;;;15.27;7.62;;;;;;;;;;746754;184;918869;-64
2023/10/06 02:16:03;;;;;;;16.20;7.20;;;;;;;;;;762133;183;917750;-62
2023/10/06 02:21:01;;;;;;;13.70;8.10;;;;;;;;;;769280;181;934691;-65
2023/10/06 02:23:24;;;;;;;18.57;7.70;;;;;;;;;;749275;185;919961;-64
2023/10/06 02:25:50;;;;;;;10.20;7.23;;;;;;;;;;762342;183;918935;-63
2023/10/06 02:28:16;;;;;;;13.70;7.57;;;;;;;;;;767998;181;919323;-63
2023/10/06 02:30:49;;;;;;;14.63;7.20;;;;;;;;;;770321;181;919408;-60
2023/10/06 02:33:08;;;;;;;14.93;6.87;;;;;;;;;;774727;181;818515;-62
2023/10/06 02:35:35;;;;;;;13.67;7.37;;;;;;;;;;768268;182;919435;-61
2023/10/06 02:38:05;;;;;;;17.93;7.30;;;;;;;;;;767911;181;919169;-61
2023/10/06 02:40:57;;;;;;;11.70;6.70;;;;;;;;;;759410;181;919731;-62
2023/10/06 02:43:09;;;;;;;14.87;6.47;;;;;;;;;;760576;179;856575;-62
2023/10/06 02:45:40;;;;;;;14.87;7.00;;;;;;;;;;764340;182;919102;-63
2023/10/06 02:47:59;;;;;;;15.93;7.93;;;;;;;;;;760988;182;919022;-63
2023/10/06 02:50:25;;;;;;;13.07;6.30;;;;;;;;;;769731;178;918850;-61
2023/10/06 02:52:53;;;;;;;11.50;6.57;;;;;;;;;;774764;178;921628;-61
2023/10/06 02:55:19;;;;;;;11.50;6.77;;;;;;;;;;755148;185;1037985;-64
2023/10/06 02:57:43;;;;;;;9.47;5.37;;;;;;;;;;768063;181;920773;-63
2023/10/06 03:02:41;;;;;;;13.30;5.77;;;;;;;;;;771147;181;919301;-61
2023/10/06 03:05:32;;;;;;;11.13;6.40;;;;;;;;;;759181;181;919403;-61
2023/10/06 03:07:33;;;;;;;12.57;6.80;;;;;;;;;;745856;185;918272;-64
2023/10/06 03:09:58;;;;;;;14.13;6.03;;;;;;;;;;760928;185;919247;-64
2023/10/06 03:12:31;;;;;;;8.90;5.63;;;;;;;;;;751627;185;921200;-61
2023/10/06 03:14:56;;;;;;;13.40;6.37;;;;;;;;;;765311;180;918445;-63
2023/10/06 03:17:20;;;;;;;11.23;5.63;;;;;;;;;;764988;181;818092;-61
2023/10/06 03:19:56;;;;;;;12.50;6.22;;;;;;;;;;771156;180;919256;-61
2023/10/06 03:22:13;;;;;;;12.30;6.57;;;;;;;;;;763490;181;919067;-61
2023/10/06 03:24:53;;;;;;;15.10;6.83;;;;;;;;;;761823;181;919000;-61
2023/10/06 03:27:14;;;;;;;11.43;5.83;;;;;;;;;;769779;181;920594;-61
2023/10/06 03:29:47;;;;;;;13.87;7.30;;;;;;;;;;778028;178;918250;-62
2023/10/06 03:32:19;;;;;;;10.47;6.07;;;;;;;;;;766660;182;917418;-64
2023/10/06 03:34:36;;;;;;;8.73;6.03;;;;;;;;;;744751;186;919005;-62
2023/10/06 03:37:04;;;;;;;10.80;5.53;;;;;;;;;;778445;180;919546;-62
2023/10/06 03:39:30;;;;;;;10.57;5.57;;;;;;;;;;770611;180;921981;-64
2023/10/06 03:42:00;;;;;;;10.20;6.20;;;;;;;;;;766554;180;921957;-64
2023/10/06 03:44:26;;;;;;;13.20;5.60;;;;;;;;;;772010;181;902334;-61
2023/10/06 03:46:46;;;;;;;8.03;5.00;;;;;;;;;;774487;178;919180;-64
2023/10/06 03:49:13;;;;;;;9.07;5.13;;;;;;;;;;765828;181;920507;-63
2023/10/06 03:51:38;;;;;;;8.93;5.80;;;;;;;;;;772612;180;818494;-62
2023/10/06 03:54:04;;;;;;;11.83;5.20;;;;;;;;;;766951;181;918034;-62
2023/10/06 03:56:30;;;;;;;8.33;5.40;;;;;;;;;;771659;178;918574;-63
2023/10/06 03:58:56;;;;;;;9.83;5.37;;;;;;;;;;766816;182;919010;-62
2023/10/06 04:01:31;;;;;;;13.50;6.10;;;;;;;;;;756240;183;917415;-61
2023/10/06 04:03:58;;;;;;;9.38;5.55;;;;;;;;;;755928;183;918712;-62
2023/10/06 04:06:23;;;;;;;10.40;5.67;;;;;;;;;;755402;183;939936;-61
2023/10/06 04:08:49;;;;;;;14.80;6.40;;;;;;;;;;767073;182;918740;-64
2023/10/06 04:11:15;;;;;;;17.23;5.83;;;;;;;;;;768371;174;922082;-65
2023/10/06 04:13:42;;;;;;;11.80;6.00;;;;;;;;;;751366;184;918525;-61
2023/10/06 04:16:07;;;;;;;12.10;6.87;;;;;;;;;;756658;182;824941;-64
2023/10/06 04:18:33;;;;;;;14.63;5.63;;;;;;;;;;759869;182;839087;-64
2023/10/06 04:20:59;;;;;;;12.90;7.67;;;;;;;;;;768693;181;918391;-64
2023/10/06 04:23:25;;;;;;;13.73;7.57;;;;;;;;;;768081;178;918158;-61
2023/10/06 04:25:54;;;;;;;11.43;5.23;;;;;;;;;;772905;181;918965;-64
2023/10/06 04:28:17;;;;;;;9.93;5.50;;;;;;;;;;766629;180;919143;-61
2023/10/06 04:30:42;;;;;;;10.53;5.90;;;;;;;;;;766458;178;922217;-61
2023/10/06 04:33:10;;;;;;;14.32;6.50;;;;;;;;;;773318;181;818086;-64
2023/10/06 04:35:35;;;;;;;17.13;6.20;;;;;;;;;;764696;182;918841;-64
2023/10/06 04:38:03;;;;;;;12.70;6.17;;;;;;;;;;745024;183;922132;-62
2023/10/06 04:40:28;;;;;;;12.25;6.70;;;;;;;;;;758988;182;919540;-63
2023/10/06 04:42:54;;;;;;;12.60;6.57;;;;;;;;;;758661;186;817509;-64
2023/10/06 04:45:19;;;;;;;13.27;7.10;;;;;;;;;;771591;182;642708;-62
2023/10/06 04:47:45;;;;;;;12.10;6.83;;;;;;;;;;764158;180;819211;-62
2023/10/06 04:50:11;;;;;;;12.47;6.30;;;;;;;;;;764161;182;613364;-61
2023/10/06 04:52:37;;;;;;;10.50;5.77;;;;;;;;;;771809;181;629420;-61
2023/10/06 04:55:04;;;;;;;12.70;7.73;;;;;;;;;;767981;182;792420;-63
2023/10/06 04:57:30;;;;;;;14.93;7.32;;;;;;;;;;767605;180;944273;-63
2023/10/06 04:59:56;;;;;;;18.00;8.27;;;;;;;;;;776541;178;919157;-61
2023/10/06 05:02:24;;;;;;;15.37;7.50;;;;;;;;;;743863;185;919676;-60
2023/10/06 05:04:48;;;;;;;14.07;6.27;;;;;;;;;;759042;180;911862;-61
2023/10/06 05:07:14;;;;;;;13.30;7.63;;;;;;;;;;772378;181;918460;-63
2023/10/06 05:09:40;;;;;;;14.97;6.70;;;;;;;;;;771231;177;919495;-64
2023/10/06 05:12:05;;;;;;;13.57;7.47;;;;;;;;;;771810;179;895853;-64
2023/10/06 05:14:34;;;;;;;14.40;7.00;;;;;;;;;;764604;182;819672;-61
2023/10/06 05:16:57;;;;;;;13.97;6.00;;;;;;;;;;769679;180;820430;-63
2023/10/06 05:19:24;;;;;;;15.30;6.43;;;;;;;;;;767302;180;917548;-61
2023/10/06 05:21:52;;;;;;;15.00;7.17;;;;;;;;;;776186;181;916308;-61
2023/10/06 05:24:16;;;;;;;14.37;6.50;;;;;;;;;;771002;178;857513;-62
2023/10/06 05:26:43;;;;;;;12.00;7.27;;;;;;;;;;766685;181;919127;-61
2023/10/06 05:29:09;;;;;;;11.43;6.80;;;;;;;;;;765032;181;919991;-62
2023/10/06 05:31:33;;;;;;;13.40;7.17;;;;;;;;;;769032;181;921756;-61
2023/10/06 05:33:59;;;;;;;13.23;6.57;;;;;;;;;;767087;179;918872;-60
2023/10/06 05:36:25;;;;;;;14.57;7.20;;;;;;;;;;769588;181;921617;-62
2023/10/06 05:38:50;;;;;;;14.90;6.80;;;;;;;;;;771599;182;922307;-63
2023/10/06 05:41:16;;;;;;;12.13;6.63;;;;;;;;;;768561;181;918988;-63
2023/10/06 05:43:43;;;;;;;16.60;7.87;;;;;;;;;;770930;178;917988;-60
2023/10/06 05:46:09;;;;;;;10.13;6.30;;;;;;;;;;769733;180;916256;-60
2023/10/06 05:48:34;;;;;;;13.63;6.93;;;;;;;;;;767368;181;812161;-61
2023/10/06 05:51:08;;;;;;;13.53;6.63;;;;;;;;;;768990;181;915569;-64
2023/10/06 05:53:38;;;;;;;11.17;5.73;;;;;;;;;;769647;180;913274;-62
2023/10/06 05:56:02;;;;;;;11.27;6.17;;;;;;;;;;771214;181;912385;-63
2023/10/06 05:58:23;;;;;;;11.60;6.80;;;;;;;;;;770310;181;853394;-63
2023/10/06 06:00:51;;;;;;;12.00;6.03;;;;;;;;;;772451;178;919728;-60
2023/10/06 06:03:20;;;;;;;13.00;6.30;;;;;;;;;;776940;180;831788;-62
2023/10/06 06:05:42;;;;;;;9.27;6.00;;;;;;;;;;771546;181;818413;-60
2023/10/06 06:08:09;;;;;;;17.10;7.13;;;;;;;;;;766912;180;910850;-62
2023/10/06 06:10:35;;;;;;;12.47;7.77;;;;;;;;;;773483;180;910273;-60
2023/10/06 06:13:01;;;;;;;14.53;6.97;;;;;;;;;;774795;181;809827;-63
2023/10/06 06:15:27;;;;;;;12.13;7.10;;;;;;;;;;747102;185;913515;-64
2023/10/06 06:17:54;;;;;;;12.57;6.50;;;;;;;;;;769066;178;919711;-63
2023/10/06 06:20:21;;;;;;;12.80;7.17;;;;;;;;;;771103;182;919190;-61
2023/10/06 06:22:53;;;;;;;20.83;7.32;;;;;;;;;;765971;181;919366;-61
2023/10/06 06:25:12;;;;;;;15.30;7.30;;;;;;;;;;766922;180;922301;-60
2023/10/06 06:27:37;;;;;;;11.53;6.77;;;;;;;;;;757258;185;921262;-61
2023/10/06 06:30:03;;;;;;;14.87;6.20;;;;;;;;;;772119;181;823638;-65
2023/10/06 06:32:29;;;;;;;13.70;6.80;;;;;;;;;;767202;182;910198;-64
2023/10/06 06:34:55;;;;;;;15.20;7.80;;;;;;;;;;769683;178;917157;-61
2023/10/06 06:37:23;;;;;;;13.60;7.23;;;;;;;;;;772652;176;801396;-64
2023/10/06 06:39:48;;;;;;;14.30;7.00;;;;;;;;;;761210;181;920629;-61
2023/10/06 06:42:14;;;;;;;13.50;5.50;;;;;;;;;;770875;180;919678;-61
2023/10/06 06:44:39;;;;;;;15.85;6.45;;;;;;;;;;768153;181;906336;-60
2023/10/06 06:47:05;;;;;;;11.57;6.13;;;;;;;;;;764523;181;911172;-64
2023/10/06 06:49:30;;;;;;;19.00;7.03;;;;;;;;;;769775;182;915882;-61
2023/10/06 06:51:58;;;;;;;12.07;6.20;;;;;;;;;;768521;182;920565;-65
2023/10/06 06:54:22;;;;;;;12.77;5.80;;;;;;;;;;771055;178;916787;-65
2023/10/06 06:56:48;;;;;;;14.10;6.13;;;;;;;;;;768639;182;918582;-65
2023/10/06 06:59:14;;;;;;;12.63;5.27;;;;;;;;;;774171;181;818152;-64
2023/10/06 07:01:39;;;;;;;16.93;5.90;;;;;;;;;;771444;180;918622;-64
2023/10/06 07:04:05;;;;;;;10.32;6.57;;;;;;;;;;767924;180;874902;-64
2023/10/06 07:06:31;;;;;;;18.27;6.77;;;;;;;;;;763958;181;939369;-61
2023/10/06 07:08:57;;;;;;;10.03;6.10;;;;;;;;;;778782;177;850608;-62
2023/10/06 07:11:23;;;;;;;11.57;5.73;;;;;;;;;;774093;180;915592;-62
2023/10/06 07:13:49;;;;;;;10.10;5.53;;;;;;;;;;769710;180;919749;-63
2023/10/06 07:16:15;;;;;;;12.97;6.00;;;;;;;;;;772531;181;919000;-61
2023/10/06 07:18:40;;;;;;;9.67;6.23;;;;;;;;;;769889;180;921090;-64
2023/10/06 07:21:07;;;;;;;15.30;6.77;;;;;;;;;;770797;181;842468;-64
2023/10/06 07:23:34;;;;;;;13.73;7.50;;;;;;;;;;773632;182;816813;-61
2023/10/06 07:25:59;;;;;;;11.70;6.33;;;;;;;;;;769891;180;919781;-61
2023/10/06 07:28:24;;;;;;;11.87;5.90;;;;;;;;;;766531;181;917666;-63
2023/10/06 07:30:52;;;;;;;11.23;6.60;;;;;;;;;;758975;183;917150;-62
2023/10/06 07:33:16;;;;;;;14.67;6.73;;;;;;;;;;771697;178;918935;-61
2023/10/06 07:35:45;;;;;;;12.17;5.73;;;;;;;;;;749233;185;918610;-61
2023/10/06 07:38:11;;;;;;;14.87;7.43;;;;;;;;;;769502;179;918492;-66
2023/10/06 07:40:38;;;;;;;22.40;7.20;;;;;;;;;;773682;181;918226;-65
2023/10/06 07:43:05;;;;;;;12.70;6.20;;;;;;;;;;766921;181;919402;-67
2023/10/06 07:45:30;;;;;;;10.37;6.53;;;;;;;;;;767976;180;921382;-61
2023/10/06 07:47:54;;;;;;;17.67;6.07;;;;;;;;;;766833;181;816445;-61
2023/10/06 07:50:20;;;;;;;10.03;5.60;;;;;;;;;;768718;181;919522;-65
2023/10/06 07:52:47;;;;;;;10.60;5.87;;;;;;;;;;766607;182;916113;-66
2023/10/06 07:55:13;;;;;;;13.40;5.20;;;;;;;;;;762208;181;913754;-68
2023/10/06 07:57:41;;;;;;;10.17;5.77;;;;;;;;;;763801;180;817400;-63
2023/10/06 08:00:08;;;;;;;11.07;6.47;;;;;;;;;;764622;182;915245;-63
2023/10/06 08:02:36;;;;;;;12.83;5.73;;;;;;;;;;766242;182;919916;-62
2023/10/06 08:04:59;;;;;;;10.90;5.67;;;;;;;;;;776011;178;917836;-63
2023/10/06 08:07:26;;;;;;;13.03;7.00;;;;;;;;;;768326;181;915650;-67
2023/10/06 08:09:51;;;;;;;12.07;6.68;;;;;;;;;;763633;182;924371;-66
2023/10/06 08:12:17;;;;;;;12.93;7.00;;;;;;;;;;774508;181;926733;-67
2023/10/06 08:14:43;;;;;;;14.83;5.83;;;;;;;;;;767859;181;914341;-66
2023/10/06 08:17:09;;;;;;;11.70;6.60;;;;;;;;;;770723;178;920826;-68
2023/10/06 08:19:35;;;;;;;11.50;6.47;;;;;;;;;;768719;181;918897;-67
2023/10/06 08:22:00;;;;;;;14.40;5.83;;;;;;;;;;776415;181;919455;-62
2023/10/06 08:24:26;;;;;;;14.90;5.97;;;;;;;;;;774732;180;919805;-63
2023/10/06 08:26:52;;;;;;;9.23;5.20;;;;;;;;;;771559;181;919722;-62
2023/10/06 08:29:18;;;;;;;14.03;5.43;;;;;;;;;;774177;181;918728;-67
2023/10/06 08:31:44;;;;;;;11.57;5.80;;;;;;;;;;771498;180;863604;-61
2023/10/06 08:34:11;;;;;;;12.40;5.60;;;;;;;;;;768704;180;918963;-66
2023/10/06 08:36:38;;;;;;;12.83;7.10;;;;;;;;;;776379;178;1126611;-62
2023/10/06 08:39:02;;;;;;;17.00;6.20;;;;;;;;;;749608;182;920937;-67
2023/10/06 08:41:27;;;;;;;11.25;5.53;;;;;;;;;;769417;181;920330;-62
2023/10/06 08:43:54;;;;;;;12.43;5.37;;;;;;;;;;772018;180;917920;-65
2023/10/06 08:46:19;;;;;;;11.73;5.10;;;;;;;;;;769677;178;818063;-66
2023/10/06 08:48:45;;;;;;;12.10;7.13;;;;;;;;;;745573;185;919308;-61
2023/10/06 08:51:14;;;;;;;9.53;4.80;;;;;;;;;;774030;180;918874;-66
2023/10/06 08:53:38;;;;;;;8.50;4.83;;;;;;;;;;770820;180;916878;-61
2023/10/06 08:56:03;;;;;;;11.23;6.00;;;;;;;;;;765558;181;921538;-62
2023/10/06 08:58:29;;;;;;;11.57;5.10;;;;;;;;;;769922;180;918810;-67
2023/10/06 09:00:55;;;;;;;12.87;5.20;;;;;;;;;;777627;180;909869;-62
2023/10/06 09:03:20;;;;;;;12.80;5.73;;;;;;;;;;772820;179;819981;-62
2023/10/06 09:05:46;;;;;;;11.50;5.67;;;;;;;;;;767528;181;919468;-67
2023/10/06 09:08:15;;;;;;;8.73;5.50;;;;;;;;;;776214;181;918161;-67
2023/10/06 09:10:41;;;;;;;8.93;4.93;;;;;;;;;;773026;181;919861;-62
2023/10/06 09:13:10;;;;;;;11.97;5.00;;;;;;;;;;753014;182;918711;-67
2023/10/06 09:15:36;;;;;;;9.50;5.13;;;;;;;;;;771364;180;818476;-67
2023/10/06 09:18:02;;;;;;;8.40;3.93;;;;;;;;;;775947;180;818640;-61
2023/10/06 09:20:31;;;;;;;8.53;3.50;;;;;;;;;;763392;181;919147;-62
2023/10/06 09:22:58;;;;;;;7.80;4.10;;;;;;;;;;763676;180;919717;-66
2023/10/06 09:25:23;;;;;;;8.35;4.00;;;;;;;;;;772590;181;918453;-66
2023/10/06 09:27:49;;;;;;;8.20;4.00;;;;;;;;;;763311;184;812598;-68
2023/10/06 09:30:20;;;;;;;6.17;3.70;;;;;;;;;;759442;182;918793;-61
2023/10/06 09:32:41;;;;;;;10.33;4.27;;;;;;;;;;764666;181;920062;-67
2023/10/06 09:35:12;;;;;;;12.63;5.00;;;;;;;;;;758675;184;921447;-61
2023/10/06 09:37:39;;;;;;;12.97;4.70;;;;;;;;;;744526;188;816260;-67
2023/10/06 09:40:18;;;;;;;7.07;3.83;;;;;;;;;;768830;181;918700;-62
2023/10/06 09:42:34;;;;;;;7.80;4.17;;;;;;;;;;767890;180;918664;-63
2023/10/06 09:45:07;;;;;;;9.87;5.37;;;;;;;;;;777248;181;819041;-62
2023/10/06 09:47:32;;;;;;;8.63;4.47;;;;;;;;;;777074;177;713757;-70
2023/10/06 09:49:58;;;;;;;8.57;5.17;;;;;;;;;;768348;181;914714;-62
2023/10/06 09:52:24;;;;;;;12.23;4.80;;;;;;;;;;771165;181;815844;-62
2023/10/06 09:54:50;;;;;;;10.27;4.53;;;;;;;;;;768899;178;918965;-68
2023/10/06 09:57:15;;;;;;;12.10;4.50;;;;;;;;;;767583;179;919451;-62
2023/10/06 09:59:41;;;;;;;8.37;3.70;;;;;;;;;;769073;180;867612;-62
2023/10/06 10:02:07;;;;;;;14.47;4.40;;;;;;;;;;764207;185;918321;-64
2023/10/06 10:04:33;;;;;;;7.60;3.83;;;;;;;;;;750397;182;919692;-64
2023/10/06 10:06:59;;;;;;;6.60;4.07;;;;;;;;;;751844;183;916713;-63
2023/10/06 10:09:28;;;;;;;12.70;4.37;;;;;;;;;;754569;185;918457;-63
2023/10/06 10:11:51;;;;;;;11.43;4.90;;;;;;;;;;762181;181;817847;-62
2023/10/06 10:14:18;;;;;;;7.83;4.30;;;;;;;;;;771401;179;918697;-69
2023/10/06 10:16:46;;;;;;;7.77;4.27;;;;;;;;;;754992;185;915249;-62
2023/10/06 10:19:11;;;;;;;9.70;4.50;;;;;;;;;;766485;180;920152;-63
2023/10/06 10:21:37;;;;;;;8.03;4.60;;;;;;;;;;769592;180;917087;-64
2023/10/06 10:24:05;;;;;;;8.17;4.33;;;;;;;;;;767228;181;901743;-69
2023/10/06 10:26:29;;;;;;;8.80;5.17;;;;;;;;;;773995;181;922864;-69
2023/10/06 10:29:01;;;;;;;9.07;4.87;;;;;;;;;;764449;180;915464;-64
2023/10/06 10:31:28;;;;;;;11.90;5.20;;;;;;;;;;772107;180;914761;-63
2023/10/06 10:33:54;;;;;;;10.00;4.47;;;;;;;;;;755330;184;916165;-69
2023/10/06 10:36:19;;;;;;;12.37;4.40;;;;;;;;;;754447;183;913635;-63
2023/10/06 10:38:45;;;;;;;8.23;4.97;;;;;;;;;;766490;180;923808;-63
2023/10/06 10:41:10;;;;;;;6.60;4.30;;;;;;;;;;769531;180;920627;-63
2023/10/06 10:43:37;;;;;;;10.67;4.77;;;;;;;;;;772698;180;923262;-64
2023/10/06 10:46:06;;;;;;;8.73;4.93;;;;;;;;;;768526;181;819831;-70
2023/10/06 10:48:31;;;;;;;8.97;4.70;;;;;;;;;;767094;180;919597;-63
2023/10/06 10:50:59;;;;;;;11.40;5.20;;;;;;;;;;774398;180;865852;-64
2023/10/06 10:53:24;;;;;;;7.90;4.93;;;;;;;;;;772043;178;850888;-64
2023/10/06 10:55:50;;;;;;;9.60;4.20;;;;;;;;;;755884;183;908485;-65
2023/10/06 10:58:21;;;;;;;11.63;5.37;;;;;;;;;;754895;184;919438;-70
2023/10/06 11:00:51;;;;;;;9.00;4.80;;;;;;;;;;768854;180;915470;-70
2023/10/06 11:03:16;;;;;;;7.50;4.90;;;;;;;;;;764875;179;915228;-70
2023/10/06 11:05:44;;;;;;;11.87;4.13;;;;;;;;;;765628;180;933763;-70
2023/10/06 11:08:08;;;;;;;11.43;4.70;;;;;;;;;;777176;180;896834;-64
2023/10/06 11:10:34;;;;;;;9.43;4.10;;;;;;;;;;770410;180;909978;-64
2023/10/06 11:13:05;;;;;;;9.13;4.10;;;;;;;;;;766499;180;915972;-70
2023/10/06 11:15:31;;;;;;;16.90;4.73;;;;;;;;;;759963;184;819580;-69
2023/10/06 11:17:58;;;;;;;6.10;3.47;;;;;;;;;;775154;178;919295;-68
2023/10/06 11:20:27;;;;;;;6.90;4.40;;;;;;;;;;771269;179;918656;-62
2023/10/06 11:22:52;;;;;;;8.77;3.93;;;;;;;;;;768274;180;919802;-69
2023/10/06 11:25:16;;;;;;;10.27;6.17;;;;;;;;;;770072;182;912816;-63
2023/10/06 11:27:42;;;;;;;9.53;4.13;;;;;;;;;;770447;179;919293;-71
2023/10/06 11:30:11;;;;;;;8.57;3.73;;;;;;;;;;756036;183;919809;-63
2023/10/06 11:32:35;;;;;;;9.00;3.87;;;;;;;;;;753618;185;919704;-63
2023/10/06 11:35:00;;;;;;;9.10;3.30;;;;;;;;;;757882;184;922061;-68
2023/10/06 11:37:29;;;;;;;5.90;3.50;;;;;;;;;;769386;180;809076;-68
2023/10/06 11:39:53;;;;;;;5.90;3.20;;;;;;;;;;767311;179;918808;-68
2023/10/06 11:42:30;;;;;;;7.90;3.50;;;;;;;;;;774980;179;919093;-69
2023/10/06 11:44:56;;;;;;;7.57;3.00;;;;;;;;;;756050;184;817043;-71
2023/10/06 11:47:40;;;;;;;7.13;3.50;;;;;;;;;;748451;185;917335;-70
2023/10/06 11:50:07;;;;;;;8.20;4.17;;;;;;;;;;764220;181;941072;-63
2023/10/06 11:52:32;;;;;;;6.47;3.77;;;;;;;;;;765159;180;918825;-68
2023/10/06 11:54:58;;;;;;;5.53;3.33;;;;;;;;;;773820;181;919108;-64
2023/10/06 11:57:30;;;;;;;7.73;2.93;;;;;;;;;;769268;181;919430;-68
2023/10/06 11:59:57;;;;;;;4.70;2.40;;;;;;;;;;750124;183;920561;-69
2023/10/06 12:02:21;;;;;;;7.23;2.73;;;;;;;;;;771012;182;822381;-63
2023/10/06 12:04:48;;;;;;;5.80;3.50;;;;;;;;;;776955;181;919183;-64
2023/10/06 12:07:19;;;;;;;7.60;3.40;;;;;;;;;;769588;181;924466;-69
2023/10/06 12:09:46;;;;;;;8.33;3.00;;;;;;;;;;770872;178;818964;-69
2023/10/06 12:12:11;;;;;;;7.80;3.37;;;;;;;;;;776302;178;916328;-66
2023/10/06 12:14:36;;;;;;;5.67;3.00;;;;;;;;;;771255;180;904255;-63
2023/10/06 12:17:02;;;;;;;4.50;2.60;;;;;;;;;;772452;181;916399;-70
2023/10/06 12:19:31;;;;;;;8.57;3.10;;;;;;;;;;754426;185;919847;-70
2023/10/06 12:21:55;;;;;;;6.00;3.20;;;;;;;;;;754124;184;627608;-69
2023/10/06 12:24:22;;;;;;;6.63;3.67;;;;;;;;;;753564;183;947359;-69
2023/10/06 12:26:46;;;;;;;8.53;3.10;;;;;;;;;;770499;180;918867;-69
2023/10/06 12:29:16;;;;;;;6.90;3.50;;;;;;;;;;775474;181;852440;-69
2023/10/06 12:31:39;;;;;;;6.60;3.75;;;;;;;;;;766286;181;919332;-70
2023/10/06 12:34:03;;;;;;;6.20;3.30;;;;;;;;;;766748;182;852748;-68
2023/10/06 12:36:29;;;;;;;8.80;3.93;;;;;;;;;;775508;180;628386;-69
2023/10/06 12:38:55;;;;;;;8.50;2.90;;;;;;;;;;774336;176;622859;-63
2023/10/06 12:41:21;;;;;;;11.70;3.47;;;;;;;;;;773257;180;627175;-63
2023/10/06 12:43:47;;;;;;;4.37;2.60;;;;;;;;;;757221;185;611504;-62
2023/10/06 12:46:13;;;;;;;7.40;3.40;;;;;;;;;;772235;180;821217;-63
2023/10/06 12:48:38;;;;;;;6.50;3.33;;;;;;;;;;768889;181;919721;-63
2023/10/06 12:51:05;;;;;;;5.57;2.47;;;;;;;;;;763209;182;935354;-68
2023/10/06 12:53:33;;;;;;;6.47;3.23;;;;;;;;;;771769;178;918560;-70
2023/10/06 12:55:57;;;;;;;17.43;3.70;;;;;;;;;;758617;184;862636;-69
2023/10/06 12:58:23;;;;;;;7.87;3.30;;;;;;;;;;765621;181;915640;-62
2023/10/06 13:00:49;;;;;;;5.70;3.13;;;;;;;;;;767433;181;918730;-68
2023/10/06 13:03:15;;;;;;;5.07;2.77;;;;;;;;;;778520;178;917588;-68
2023/10/06 13:05:42;;;;;;;6.30;2.87;;;;;;;;;;768845;181;920282;-62
2023/10/06 13:08:09;;;;;;;7.93;3.57;;;;;;;;;;772479;179;918304;-63
2023/10/06 13:10:34;;;;;;;7.90;3.10;;;;;;;;;;755579;185;916320;-68
2023/10/06 13:13:00;;;;;;;9.10;3.80;;;;;;;;;;756867;184;819476;-69
2023/10/06 13:15:29;;;;;;;9.27;3.23;;;;;;;;;;755219;184;926508;-63
2023/10/06 13:17:51;;;;;;;7.77;3.27;;;;;;;;;;758343;181;936435;-66
2023/10/06 13:20:17;;;;;;;7.23;2.87;;;;;;;;;;767561;182;919507;-69
2023/10/06 13:22:44;;;;;;;8.17;3.50;;;;;;;;;;770409;180;915883;-62
2023/10/06 13:25:10;;;;;;;7.97;2.73;;;;;;;;;;761294;184;913663;-68
2023/10/06 13:27:36;;;;;;;5.73;3.40;;;;;;;;;;737793;189;813510;-67
2023/10/06 13:30:06;;;;;;;8.90;3.53;;;;;;;;;;767089;180;916031;-68
2023/10/06 13:32:27;;;;;;;6.37;3.10;;;;;;;;;;777320;180;850263;-69
2023/10/06 13:34:53;;;;;;;7.33;3.43;;;;;;;;;;774773;180;919283;-69
2023/10/06 13:37:22;;;;;;;8.87;3.60;;;;;;;;;;764344;180;912296;-63
2023/10/06 13:39:45;;;;;;;7.30;2.53;;;;;;;;;;771024;181;911799;-68
2023/10/06 13:42:15;;;;;;;8.70;3.10;;;;;;;;;;773859;181;913667;-67
2023/10/06 13:44:36;;;;;;;7.07;2.73;;;;;;;;;;772099;180;919702;-63
2023/10/06 13:47:05;;;;;;;5.87;3.00;;;;;;;;;;766963;180;920937;-63
2023/10/06 13:49:29;;;;;;;5.53;3.00;;;;;;;;;;767710;181;816528;-64
2023/10/06 13:51:54;;;;;;;8.07;3.63;;;;;;;;;;754758;182;824032;-62
2023/10/06 13:54:20;;;;;;;11.00;3.20;;;;;;;;;;769602;179;820459;-62
2023/10/06 13:56:46;;;;;;;7.30;3.40;;;;;;;;;;770079;181;921236;-68
2023/10/06 13:59:14;;;;;;;6.03;3.90;;;;;;;;;;774367;178;935686;-63
2023/10/06 14:01:39;;;;;;;7.20;3.47;;;;;;;;;;755249;182;956382;-62
2023/10/06 14:04:04;;;;;;;5.00;3.10;;;;;;;;;;760640;182;919731;-61
2023/10/06 14:06:30;;;;;;;5.43;3.20;;;;;;;;;;769706;182;919810;-62
2023/10/06 14:08:55;;;;;;;6.60;3.20;;;;;;;;;;763542;181;922151;-68
2023/10/06 14:11:22;;;;;;;5.83;3.23;;;;;;;;;;769552;180;921911;-63
2023/10/06 14:13:49;;;;;;;7.20;3.37;;;;;;;;;;752646;186;918586;-67
2023/10/06 14:16:22;;;;;;;6.60;3.10;;;;;;;;;;737452;187;918788;-69
2023/10/06 14:18:40;;;;;;;6.40;3.10;;;;;;;;;;749597;184;916736;-68
2023/10/06 14:21:06;;;;;;;5.50;2.80;;;;;;;;;;764246;182;820422;-66
2023/10/06 14:23:35;;;;;;;9.50;3.73;;;;;;;;;;758097;185;716517;-64